Time;durP1;ratioP1;P1;durP2;ratioP2;P2;SDS_P1;SDS_P2;PMS_P1;PMS_P2;Temp;Humidity;BMP_temperature;BMP_pressure;BME280_temperature;BME280_humidity;BME280_pressure;Samples;Min_cycle;Max_cycle;Signal;HPM_P1;HPM_P2
2023/08/05 00:04:19;;;;;;;17.60;15.73;;;16.20;99.90;;;16.87;100.00;97804.69;10401376;28;20225;-69
2023/08/05 00:09:22;;;;;;;19.20;15.00;;;16.20;99.90;;;16.88;100.00;97801.28;10409270;28;20240;-68
2023/08/05 00:14:26;;;;;;;16.35;14.38;;;16.30;99.90;;;16.88;100.00;97805.53;10404980;28;20226;-67
2023/08/05 00:19:30;;;;;;;17.92;15.25;;;16.20;99.90;;;16.89;100.00;97802.16;10403086;28;20236;-68
2023/08/05 00:24:33;;;;;;;15.45;13.77;;;16.20;99.90;;;16.79;100.00;97803.56;10419673;28;20236;-68
2023/08/05 00:29:37;;;;;;;18.40;14.48;;;16.20;99.90;;;16.90;100.00;97801.31;10404602;28;20693;-68
2023/08/05 00:34:40;;;;;;;18.08;14.80;;;16.20;99.90;;;16.84;100.00;97788.22;10399694;28;20233;-68
2023/08/05 00:39:43;;;;;;;17.33;15.38;;;16.20;99.90;;;16.75;100.00;97788.78;10401795;28;20304;-68
2023/08/05 00:44:48;;;;;;;18.45;14.98;;;16.10;99.90;;;16.74;100.00;97780.97;10403755;28;20667;-68
2023/08/05 00:49:53;;;;;;;17.20;13.30;;;16.10;99.90;;;16.78;100.00;97777.72;10397468;28;20236;-68
2023/08/05 00:54:57;;;;;;;17.45;14.23;;;16.10;99.90;;;16.78;100.00;97777.72;10407424;28;20228;-68
2023/08/05 01:00:02;;;;;;;21.45;15.32;;;16.00;99.90;;;16.75;100.00;97785.31;10404617;28;20222;-68
2023/08/05 01:05:05;;;;;;;17.40;14.85;;;16.10;99.90;;;16.73;100.00;97790.41;10405509;28;20229;-68
2023/08/05 01:10:10;;;;;;;18.55;14.38;;;16.10;99.90;;;16.76;100.00;97800.88;10422708;28;20748;-68
2023/08/05 01:15:14;;;;;;;15.80;13.48;;;16.00;99.90;;;16.64;100.00;97810.78;10412414;28;20251;-68
2023/08/05 01:20:19;;;;;;;15.35;13.30;;;16.00;99.90;;;16.66;100.00;97807.44;10410063;28;20676;-68
2023/08/05 01:25:28;;;;;;;12.80;11.40;;;16.00;99.90;;;16.67;100.00;97806.59;10410245;28;20792;-67
2023/08/05 01:30:32;;;;;;;14.73;12.52;;;16.00;99.90;;;16.67;100.00;97804.00;10401978;28;20599;-67
2023/08/05 01:35:35;;;;;;;13.48;12.00;;;16.00;99.90;;;16.62;100.00;97810.72;10406953;28;20236;-67
2023/08/05 01:40:40;;;;;;;15.63;12.70;;;16.00;99.90;;;16.62;100.00;97808.13;10408444;28;20224;-67
2023/08/05 01:45:43;;;;;;;17.00;12.63;;;15.90;99.90;;;16.60;100.00;97808.94;10407899;28;20597;-67
2023/08/05 01:50:46;;;;;;;14.48;11.82;;;15.90;99.90;;;16.65;100.00;97803.09;10410511;28;20234;-68
2023/08/05 01:55:50;;;;;;;15.60;12.38;;;15.90;99.90;;;16.48;100.00;97804.22;10407981;28;20229;-67
2023/08/05 02:00:54;;;;;;;13.60;12.20;;;15.80;99.90;;;16.46;100.00;97790.44;10412395;28;20217;-67
2023/08/05 02:05:57;;;;;;;17.42;12.38;;;15.80;99.90;;;16.39;100.00;97758.38;10404699;28;20244;-67
2023/08/05 02:11:02;;;;;;;12.73;11.50;;;15.70;99.90;;;16.44;100.00;97748.22;10406808;28;20676;-67
2023/08/05 02:16:05;;;;;;;11.93;10.73;;;15.70;99.90;;;16.37;100.00;97744.56;10410210;28;20308;-67
2023/08/05 02:21:08;;;;;;;15.63;11.32;;;15.70;99.90;;;16.41;100.00;97750.69;10411791;28;20785;-68
2023/08/05 02:26:13;;;;;;;11.68;9.88;;;15.70;99.90;;;16.31;100.00;97736.63;10413199;28;20325;-68
2023/08/05 02:31:16;;;;;;;12.40;10.45;;;15.60;99.90;;;16.26;100.00;97729.56;10407019;28;20235;-67
2023/08/05 02:36:19;;;;;;;14.63;11.77;;;15.50;99.90;;;16.24;100.00;97715.75;10405815;28;20339;-67
2023/08/05 02:41:24;;;;;;;12.88;10.80;;;15.50;99.90;;;16.21;100.00;97714.81;10409620;28;20230;-67
2023/08/05 02:46:27;;;;;;;15.00;11.60;;;15.50;99.90;;;16.21;100.00;97716.50;10401134;28;20458;-67
2023/08/05 02:51:30;;;;;;;13.05;11.45;;;15.50;99.90;;;16.13;100.00;97718.84;10403465;28;20769;-67
2023/08/05 02:56:34;;;;;;;13.63;10.65;;;15.50;99.90;;;16.26;100.00;97739.88;10402491;28;20217;-67
2023/08/05 03:01:37;;;;;;;13.95;11.63;;;15.50;99.90;;;16.26;100.00;97739.88;10410959;28;20228;-67
2023/08/05 03:06:41;;;;;;;12.65;11.27;;;15.60;99.90;;;16.26;100.00;97751.06;10398812;28;20771;-67
2023/08/05 03:11:46;;;;;;;14.40;12.40;;;15.50;99.90;;;16.34;100.00;97764.19;10404975;28;20242;-67
2023/08/05 03:16:49;;;;;;;15.52;12.48;;;15.60;99.90;;;16.32;100.00;97782.22;10403467;28;20607;-67
2023/08/05 03:21:52;;;;;;;14.27;12.02;;;15.60;99.90;;;16.34;100.00;97777.09;10400913;28;20233;-67
2023/08/05 03:26:57;;;;;;;12.63;11.30;;;15.60;99.90;;;16.34;100.00;97784.84;10406376;28;20217;-67
2023/08/05 03:32:00;;;;;;;15.52;12.05;;;15.60;99.90;;;16.28;100.00;97784.63;10402462;28;20253;-67
2023/08/05 03:37:04;;;;;;;13.90;12.18;;;15.60;99.90;;;16.31;100.00;97784.75;10397306;28;20218;-68
2023/08/05 03:42:08;;;;;;;14.10;12.60;;;15.60;99.90;;;16.36;100.00;97798.69;10403570;28;20610;-67
2023/08/05 03:47:12;;;;;;;14.32;12.90;;;15.60;99.90;;;16.36;100.00;97799.53;10400624;28;20229;-67
2023/08/05 03:52:15;;;;;;;15.40;12.98;;;15.60;99.90;;;16.42;100.00;97799.78;10410296;28;20233;-68
2023/08/05 03:57:20;;;;;;;13.40;11.68;;;15.70;99.90;;;16.39;100.00;97789.31;10409638;28;20226;-67
2023/08/05 04:07:54;;;;;;;13.93;12.52;;;15.60;99.90;;;16.44;100.00;97810.13;10369027;28;20241;-69
2023/08/05 04:13:01;;;;;;;15.10;13.15;;;15.60;99.90;;;16.39;100.00;97817.69;10394844;28;20235;-69
2023/08/05 04:18:05;;;;;;;14.45;12.93;;;15.60;99.90;;;16.38;100.00;97820.25;10398026;28;20221;-69
2023/08/05 04:23:10;;;;;;;15.98;14.00;;;15.60;99.90;;;16.33;100.00;97820.09;10395543;28;20225;-70
2023/08/05 04:28:14;;;;;;;15.98;12.75;;;15.60;99.90;;;16.39;100.00;97814.25;10393476;28;20590;-70
2023/08/05 04:33:18;;;;;;;13.50;12.10;;;15.60;99.90;;;16.43;100.00;97810.97;10399851;28;20225;-70
2023/08/05 04:38:21;;;;;;;14.68;13.20;;;15.60;99.90;;;16.35;100.00;97818.44;10400092;28;20697;-70
2023/08/05 04:43:26;;;;;;;15.25;13.70;;;15.60;99.90;;;16.36;100.00;97812.44;10405292;28;20240;-70
2023/08/05 04:48:29;;;;;;;15.02;13.45;;;15.60;99.90;;;16.49;100.00;97820.63;10404664;28;20229;-70
2023/08/05 04:53:32;;;;;;;13.93;12.40;;;15.70;99.90;;;16.48;100.00;97822.28;10404174;28;20225;-69
2023/08/05 04:58:36;;;;;;;14.88;13.15;;;15.60;99.90;;;16.49;100.00;97826.66;10404995;28;20313;-70
2023/08/05 05:03:40;;;;;;;14.70;13.20;;;15.70;99.90;;;16.46;100.00;97821.38;10402626;28;20713;-70
2023/08/05 05:08:43;;;;;;;16.83;13.75;;;15.70;99.90;;;16.45;100.00;97819.63;10404569;28;20229;-70
2023/08/05 05:13:50;;;;;;;16.40;14.32;;;15.70;99.90;;;16.41;100.00;97821.22;10404023;28;20709;-70
2023/08/05 05:18:53;;;;;;;16.90;14.93;;;15.70;99.90;;;16.55;100.00;97820.81;10401498;28;20221;-69
2023/08/05 05:23:56;;;;;;;15.88;14.30;;;15.70;99.90;;;16.56;100.00;97828.59;10403813;28;20230;-70
2023/08/05 05:29:01;;;;;;;18.60;14.50;;;15.60;99.90;;;16.53;100.00;97818.16;10405142;28;20221;-69
2023/08/05 05:34:04;;;;;;;15.30;13.80;;;15.60;99.90;;;16.53;100.00;97813.00;10401681;28;20236;-69
2023/08/05 05:39:07;;;;;;;14.43;12.95;;;15.60;99.90;;;16.43;100.00;97805.81;10400177;28;20236;-68
2023/08/05 05:44:12;;;;;;;14.75;13.05;;;15.60;99.90;;;16.44;100.00;97797.22;10398030;28;20237;-70
2023/08/05 05:49:15;;;;;;;16.33;13.50;;;15.60;99.90;;;16.48;100.00;97801.66;10401147;28;20245;-70
2023/08/05 05:54:19;;;;;;;15.55;13.27;;;15.60;99.90;;;16.53;100.00;97791.50;10397675;28;20233;-70
2023/08/05 05:59:23;;;;;;;14.43;13.02;;;15.70;99.90;;;16.70;100.00;97797.19;10401472;28;20230;-70
2023/08/05 06:04:28;;;;;;;14.25;12.73;;;15.70;99.90;;;16.80;100.00;97797.59;10393593;28;20651;-70
2023/08/05 06:09:32;;;;;;;14.02;12.63;;;15.80;99.90;;;16.78;100.00;97794.06;10403666;28;20241;-70
2023/08/05 06:14:37;;;;;;;12.98;11.77;;;15.90;99.90;;;16.71;100.00;97797.25;10398311;28;20226;-70
2023/08/05 06:19:41;;;;;;;14.45;13.05;;;15.90;99.90;;;16.97;100.00;97795.53;10398955;28;20222;-71
2023/08/05 06:24:44;;;;;;;13.85;12.32;;;16.00;99.90;;;17.14;100.00;97793.47;10400535;28;20236;-71
2023/08/05 06:29:48;;;;;;;12.60;11.40;;;16.30;99.90;;;17.14;100.00;97803.78;10397869;28;20259;-72
2023/08/05 06:34:52;;;;;;;11.95;10.75;;;16.20;99.90;;;17.19;100.00;97816.81;10400868;28;20237;-69
2023/08/05 06:39:55;;;;;;;12.80;11.50;;;16.30;99.90;;;17.31;100.00;97812.03;10403629;28;20689;-70
2023/08/05 06:44:59;;;;;;;13.40;12.15;;;16.30;99.90;;;17.36;100.00;97813.03;10401051;28;20646;-70
2023/08/05 06:50:05;;;;;;;12.80;11.70;;;16.40;99.90;;;17.46;100.00;97801.28;10399262;28;20306;-71
2023/08/05 06:55:09;;;;;;;13.43;11.95;;;16.30;99.90;;;17.51;100.00;97804.84;10398645;28;20618;-70
2023/08/05 07:00:14;;;;;;;13.75;11.38;;;16.50;99.90;;;17.57;100.00;97807.63;10402320;28;20747;-70
2023/08/05 07:05:17;;;;;;;12.32;11.13;;;16.60;99.90;;;17.65;100.00;97807.84;10400737;28;20228;-70
2023/08/05 07:10:21;;;;;;;12.73;11.50;;;16.60;99.90;;;17.67;100.00;97811.34;10400593;28;20230;-71
2023/08/05 07:15:25;;;;;;;11.70;10.68;;;16.70;99.90;;;17.87;100.00;97804.19;10400693;28;20261;-69
2023/08/05 07:20:28;;;;;;;11.23;10.25;;;16.90;99.90;;;18.09;97.34;97801.34;10397895;28;20221;-70
2023/08/05 07:25:31;;;;;;;10.85;9.82;;;17.20;99.90;;;18.14;98.99;97784.25;10399788;28;20236;-70
2023/08/05 07:30:36;;;;;;;11.18;10.20;;;17.20;99.90;;;18.10;96.92;97772.03;10397204;28;20249;-68
2023/08/05 07:35:39;;;;;;;11.02;10.02;;;17.20;99.90;;;18.32;94.98;97767.44;10397230;28;20233;-70
2023/08/05 07:40:43;;;;;;;10.25;9.35;;;17.30;99.90;;;18.68;91.36;97763.16;10398775;28;20221;-69
2023/08/05 07:47:05;;;;;;;10.65;9.65;;;17.60;99.90;;;18.82;92.86;97760.88;10394293;28;20222;-71
2023/08/05 07:52:12;;;;;;;10.25;9.40;;;17.70;99.90;;;18.96;90.93;97771.56;10317519;28;20226;-70
2023/08/05 07:57:15;;;;;;;10.95;9.85;;;17.80;99.90;;;19.08;90.02;97770.97;10400210;28;20261;-70
2023/08/05 08:02:19;;;;;;;9.50;8.60;;;17.80;99.90;;;18.93;91.50;97779.28;10393799;28;20232;-68
2023/08/05 08:07:24;;;;;;;9.70;8.80;;;17.70;99.90;;;19.06;91.19;97780.44;10400314;28;20230;-70
2023/08/05 08:12:27;;;;;;;8.68;7.97;;;18.00;99.90;;;19.36;90.82;97786.25;10407218;28;20249;-69
2023/08/05 08:17:31;;;;;;;8.30;7.63;;;18.30;99.90;;;19.13;89.75;97779.72;10411704;28;20748;-69
2023/08/05 08:22:35;;;;;;;8.60;7.72;;;18.10;99.90;;;19.41;88.15;97780.31;10397995;28;20356;-70
2023/08/05 08:27:38;;;;;;;8.45;7.75;;;18.30;99.90;;;19.44;87.64;97786.44;10388163;28;20717;-70
2023/08/05 08:32:41;;;;;;;9.40;8.60;;;18.20;99.90;;;19.21;87.50;97780.75;10393823;28;20293;-70
2023/08/05 08:37:46;;;;;;;9.30;8.40;;;18.20;99.90;;;19.35;86.27;97784.53;10379368;28;20340;-70
2023/08/05 08:42:51;;;;;;;8.57;7.78;;;18.20;99.90;;;19.43;86.22;97781.19;10390332;28;20221;-70
2023/08/05 08:47:54;;;;;;;7.82;7.22;;;18.20;99.90;;;19.39;86.83;97780.28;10390114;28;20221;-69
2023/08/05 08:53:00;;;;;;;8.00;7.28;;;18.30;99.90;;;19.32;86.43;97786.19;10394400;28;20242;-68
2023/08/05 08:58:03;;;;;;;7.35;6.78;;;18.30;99.90;;;19.69;83.93;97777.47;10394239;28;20713;-68
2023/08/05 09:03:07;;;;;;;7.40;6.70;;;18.60;99.90;;;20.09;83.93;97778.22;10406681;28;20236;-70
2023/08/05 09:08:12;;;;;;;6.57;6.05;;;19.20;99.90;;;20.86;79.64;97776.91;10404381;28;20741;-67
2023/08/05 09:13:16;;;;;;;5.57;5.18;;;19.80;99.90;;;21.30;75.47;97776.69;10408092;28;20320;-69
2023/08/05 09:18:20;;;;;;;6.25;5.75;;;20.50;99.90;;;21.09;72.95;97767.75;10406263;28;20225;-68
2023/08/05 09:23:24;;;;;;;6.25;5.75;;;20.10;99.90;;;21.45;72.06;97763.03;10406645;28;20316;-69
2023/08/05 09:28:31;;;;;;;6.13;5.53;;;20.30;99.90;;;21.71;72.36;97764.22;10406214;28;20226;-68
2023/08/05 09:33:36;;;;;;;5.85;5.32;;;20.30;99.90;;;21.33;73.77;97761.13;10406745;28;20316;-69
2023/08/05 09:38:41;;;;;;;5.78;5.15;;;20.00;99.90;;;21.39;73.02;97760.38;10408327;28;20221;-69
2023/08/05 09:43:45;;;;;;;5.78;5.13;;;20.30;99.90;;;22.15;72.19;97742.09;10404666;28;20253;-68
2023/08/05 09:48:49;;;;;;;5.75;5.30;;;21.20;99.90;;;22.65;67.62;97746.91;10402648;28;20234;-69
2023/08/05 09:53:58;;;;;;;4.82;4.43;;;21.90;99.90;;;23.13;68.39;97737.69;10403438;28;20604;-68
2023/08/05 09:59:03;;;;;;;5.05;4.70;;;22.50;99.90;;;23.60;62.64;97731.81;10407592;28;20219;-68
2023/08/05 10:04:08;;;;;;;4.70;4.30;;;22.90;99.90;;;23.71;62.90;97711.00;10424578;22;20226;-68
2023/08/05 10:09:12;;;;;;;4.55;4.15;;;22.90;99.90;;;23.67;62.47;97715.31;10413032;28;20256;-68
2023/08/05 10:14:16;;;;;;;8.18;4.20;;;22.80;99.90;;;23.81;61.20;97718.84;10403225;28;20238;-68
2023/08/05 10:19:28;;;;;;;4.50;4.20;;;22.70;99.90;;;23.33;61.53;97698.66;10375386;28;20234;-68
2023/08/05 10:24:51;;;;;;;3.83;3.53;;;22.30;99.90;;;23.29;63.07;97696.91;10370527;28;20319;-68
2023/08/05 10:29:57;;;;;;;3.75;3.47;;;22.30;99.90;;;23.43;59.36;97696.94;10364923;28;20226;-67
2023/08/05 10:35:26;;;;;;;3.47;3.17;;;22.40;99.90;;;23.63;58.77;97692.66;10375335;28;20234;-67
2023/08/05 10:40:50;;;;;;;3.50;3.20;;;22.90;99.90;;;23.76;56.05;97688.38;10376785;28;20313;-67
2023/08/05 10:45:55;;;;;;;3.63;3.05;;;23.20;99.90;;;24.14;54.48;97679.72;10372712;28;20230;-68
2023/08/05 10:50:59;;;;;;;3.85;3.55;;;23.50;99.90;;;24.09;55.80;97677.09;10380555;28;20245;-68
2023/08/05 10:56:09;;;;;;;4.15;3.00;;;23.20;99.90;;;23.97;57.48;97671.88;10363644;28;20620;-68
2023/08/05 11:01:12;;;;;;;4.00;3.50;;;23.10;99.90;;;24.34;57.48;97658.81;10372677;28;20709;-68
2023/08/05 11:06:21;;;;;;;3.78;3.38;;;23.70;99.90;;;24.36;53.89;97646.63;10371011;28;20649;-68
2023/08/05 11:11:27;;;;;;;3.45;3.15;;;23.50;99.90;;;24.15;56.29;97640.56;10366668;28;20722;-68
2023/08/05 11:16:30;;;;;;;3.42;3.13;;;23.20;99.90;;;24.13;55.41;97644.91;10370820;28;20352;-68
2023/08/05 11:21:34;;;;;;;3.50;3.30;;;23.10;99.90;;;24.13;55.52;97630.97;10377141;28;20229;-67
2023/08/05 11:26:39;;;;;;;3.17;2.92;;;23.10;99.90;;;24.38;54.22;97618.72;10356087;28;20821;-68
2023/08/05 11:31:51;;;;;;;3.55;3.00;;;23.20;99.90;;;24.41;54.79;97610.88;10363814;28;20234;-67
2023/08/05 11:36:56;;;;;;;3.20;3.00;;;23.30;99.90;;;24.56;54.10;97605.69;10352723;28;20317;-68
2023/08/05 11:42:02;;;;;;;4.80;3.00;;;23.50;99.90;;;24.52;52.92;97595.22;10357493;28;20225;-68
2023/08/05 11:47:05;;;;;;;3.13;2.90;;;23.30;99.90;;;24.58;52.25;97593.50;10356909;28;20228;-67
2023/08/05 11:52:11;;;;;;;3.17;2.97;;;23.50;99.90;;;24.81;50.45;97580.34;10356398;28;20257;-67
2023/08/05 11:57:22;;;;;;;3.10;2.90;;;23.80;98.70;;;24.79;49.50;97566.41;10339535;28;20237;-67
2023/08/05 12:02:25;;;;;;;3.20;2.75;;;23.80;98.40;;;24.75;51.52;97558.56;10349709;28;20586;-67
2023/08/05 12:07:29;;;;;;;3.00;2.80;;;23.70;99.30;;;24.48;49.96;97549.94;10350600;28;20313;-67
2023/08/05 12:12:33;;;;;;;2.72;2.53;;;23.60;97.70;;;24.48;49.53;97550.81;10350115;28;20237;-67
2023/08/05 12:17:36;;;;;;;2.58;2.40;;;23.80;97.00;;;24.83;48.56;97548.94;10353743;28;20614;-67
2023/08/05 12:22:40;;;;;;;2.78;2.58;;;23.90;96.40;;;24.88;49.33;97548.03;10350942;28;20218;-67
2023/08/05 12:27:44;;;;;;;2.72;2.53;;;24.30;97.00;;;24.72;48.48;97548.97;10350452;28;20731;-67
2023/08/05 12:32:48;;;;;;;2.80;2.60;;;23.80;96.40;;;24.71;48.89;97540.28;10351597;28;20240;-68
2023/08/05 12:37:51;;;;;;;4.00;3.10;;;23.80;96.50;;;24.66;50.00;97539.41;10348113;28;20608;-67
2023/08/05 12:42:55;;;;;;;2.95;2.75;;;23.80;97.30;;;24.81;49.94;97530.66;10348097;28;20217;-67
2023/08/05 12:47:58;;;;;;;3.03;2.83;;;23.80;97.60;;;24.75;48.56;97529.78;10341228;28;20907;-67
2023/08/05 12:53:02;;;;;;;3.00;2.67;;;23.80;96.50;;;24.76;47.72;97528.94;10338423;28;20300;-66
2023/08/05 12:58:06;;;;;;;2.95;2.60;;;23.90;95.60;;;24.96;49.13;97516.63;10356804;28;20789;-66
2023/08/05 13:03:09;;;;;;;3.05;2.65;;;24.00;96.80;;;25.22;47.82;97521.72;10361729;28;20321;-66
2023/08/05 13:08:13;;;;;;;2.90;2.70;;;24.30;95.70;;;25.19;46.94;97513.91;10375455;28;20244;-66
2023/08/05 13:13:17;;;;;;;2.90;2.55;;;24.20;95.10;;;25.16;46.94;97511.31;10373046;28;20609;-65
2023/08/05 13:18:20;;;;;;;2.67;2.47;;;24.20;94.70;;;24.95;47.42;97502.69;10378453;28;20225;-67
2023/08/05 13:23:23;;;;;;;2.70;2.50;;;24.10;95.30;;;24.90;48.28;97491.38;10343539;28;20313;-66
2023/08/05 13:28:28;;;;;;;2.63;2.42;;;23.90;95.80;;;24.91;48.47;97497.47;10368900;28;20241;-66
2023/08/05 13:33:32;;;;;;;2.55;2.38;;;23.90;95.90;;;24.69;46.92;97486.25;10377562;28;20229;-65
2023/08/05 13:38:35;;;;;;;2.65;2.40;;;23.70;94.70;;;24.13;46.93;97480.34;10362172;28;20686;-67
2023/08/05 13:43:39;;;;;;;3.35;2.70;;;23.20;94.50;;;23.99;48.83;97476.91;10349646;28;20677;-66
2023/08/05 13:48:42;;;;;;;2.92;2.72;;;23.10;95.80;;;24.08;50.74;97466.44;10359491;28;20233;-68
2023/08/05 13:53:45;;;;;;;3.20;2.90;;;23.20;97.20;;;24.16;49.74;97459.44;10358232;28;20248;-67
2023/08/05 13:58:50;;;;;;;3.20;3.00;;;23.30;96.40;;;24.17;51.53;97462.94;10358919;28;20229;-68
2023/08/05 14:03:53;;;;;;;3.10;2.65;;;23.40;97.40;;;24.43;48.96;97447.19;10348966;28;20241;-67
2023/08/05 14:09:00;;;;;;;2.63;2.42;;;23.50;96.70;;;24.32;46.63;97443.72;10354688;28;20652;-68
2023/08/05 14:14:05;;;;;;;3.13;2.92;;;23.40;94.00;;;24.36;48.55;97440.22;10358037;28;20217;-69
2023/08/05 14:19:08;;;;;;;2.72;2.53;;;23.50;95.80;;;24.67;48.16;97436.63;10352958;28;20234;-69
2023/08/05 14:24:11;;;;;;;3.42;2.50;;;23.90;95.30;;;24.72;47.37;97432.22;10355342;28;20230;-68
2023/08/05 14:29:16;;;;;;;3.50;2.42;;;23.80;94.60;;;24.82;46.68;97429.56;10360393;28;20222;-68
2023/08/05 14:34:19;;;;;;;2.85;2.65;;;23.80;93.90;;;24.60;48.48;97424.44;10354754;28;20461;-67
2023/08/05 14:39:22;;;;;;;2.83;2.63;;;23.60;95.30;;;24.33;49.39;97427.19;10356816;28;20230;-69
2023/08/05 14:44:26;;;;;;;2.58;2.47;;;23.30;96.40;;;24.13;50.22;97422.91;10355494;28;20237;-66
2023/08/05 14:49:30;;;;;;;2.97;2.78;;;23.10;96.80;;;24.03;50.26;97423.78;10359091;28;20299;-68
2023/08/05 14:54:33;;;;;;;3.15;2.90;;;23.00;97.00;;;24.01;50.83;97409.91;10361064;28;20231;-69
2023/08/05 14:59:37;;;;;;;3.50;2.72;;;23.00;97.50;;;24.09;50.88;97413.31;10355661;28;20731;-68
2023/08/05 15:04:40;;;;;;;2.88;2.60;;;23.00;97.50;;;24.28;48.66;97411.50;10357112;28;20237;-67
2023/08/05 15:09:43;;;;;;;3.28;2.97;;;23.10;96.10;;;24.10;49.84;97404.63;10358174;28;20233;-68
2023/08/05 15:14:48;;;;;;;3.10;2.90;;;23.00;96.60;;;24.04;49.99;97396.81;10356803;28;20706;-67
2023/08/05 15:19:53;;;;;;;3.22;2.95;;;22.90;96.60;;;23.97;51.02;97395.09;10357934;28;20704;-69
2023/08/05 15:24:57;;;;;;;3.53;3.22;;;22.90;97.30;;;23.77;51.82;97389.94;10356294;28;20597;-67
2023/08/05 15:30:06;;;;;;;2.88;2.72;;;22.70;98.10;;;23.65;52.70;97382.97;10360742;28;20249;-67
2023/08/05 15:35:09;;;;;;;4.05;3.45;;;22.50;98.50;;;23.38;52.73;97387.38;10361897;28;20237;-69
2023/08/05 15:40:13;;;;;;;3.78;3.45;;;22.40;98.40;;;23.28;52.89;97388.25;10359991;28;20234;-67
2023/08/05 15:45:17;;;;;;;4.18;3.80;;;22.40;98.80;;;23.36;52.36;97376.06;10358320;28;20234;-67
2023/08/05 15:50:20;;;;;;;3.45;3.00;;;22.40;98.30;;;23.44;51.99;97357.81;10355305;28;20233;-67
2023/08/05 15:55:24;;;;;;;2.85;2.65;;;22.60;97.50;;;23.35;51.82;97366.53;10354832;28;20741;-68
2023/08/05 16:00:28;;;;;;;3.55;3.25;;;22.50;97.90;;;23.51;52.10;97363.88;10357427;28;21082;-67
2023/08/05 16:05:31;;;;;;;4.45;3.17;;;22.50;97.80;;;23.41;51.26;97349.09;10355534;28;20258;-67
2023/08/05 16:10:35;;;;;;;4.18;3.85;;;22.40;97.10;;;23.34;51.66;97346.50;10361019;28;20244;-68
2023/08/05 16:15:39;;;;;;;3.20;3.00;;;22.30;97.40;;;23.36;50.17;97338.69;10349130;28;20597;-67
2023/08/05 16:20:42;;;;;;;3.20;3.00;;;22.40;96.40;;;23.27;51.96;97330.91;10349295;28;20234;-67
2023/08/05 16:25:45;;;;;;;2.88;2.63;;;22.20;97.50;;;23.48;50.91;97320.41;10346165;28;20306;-67
2023/08/05 16:30:54;;;;;;;3.13;2.92;;;22.40;97.40;;;23.04;53.47;97312.69;10355858;28;20502;-67
2023/08/05 16:35:57;;;;;;;3.47;3.08;;;22.10;98.50;;;22.86;53.49;97306.56;10360488;28;20242;-68
2023/08/05 16:41:00;;;;;;;2.78;2.53;;;21.90;99.10;;;22.85;52.67;97304.81;10356149;28;20253;-67
2023/08/05 16:46:06;;;;;;;3.30;3.00;;;21.90;98.00;;;22.57;56.13;97300.47;10357926;28;20737;-66
2023/08/05 16:51:09;;;;;;;3.60;3.30;;;21.60;99.90;;;22.41;56.66;97291.81;10355602;28;20238;-67
2023/08/05 16:56:12;;;;;;;3.38;2.83;;;21.40;99.90;;;22.38;54.64;97283.97;10364163;28;20237;-67
2023/08/05 17:01:17;;;;;;;3.50;3.20;;;21.40;99.00;;;22.28;56.52;97280.47;10370546;28;20234;-67
2023/08/05 17:06:22;;;;;;;3.50;3.20;;;21.40;99.90;;;22.25;56.09;97281.34;10367767;28;20292;-67
2023/08/05 17:11:26;;;;;;;3.47;3.17;;;21.40;99.90;;;22.06;56.45;97282.13;10363554;28;20226;-67
2023/08/05 17:16:30;;;;;;;3.60;3.30;;;21.20;99.90;;;21.93;58.96;97283.84;10364200;28;20238;-67
2023/08/05 17:21:33;;;;;;;3.55;3.30;;;21.00;99.90;;;21.86;60.32;97284.69;10370517;28;20310;-66
2023/08/05 17:26:36;;;;;;;4.00;3.70;;;20.90;99.90;;;21.80;62.46;97272.53;10361668;28;20231;-67
2023/08/05 17:31:41;;;;;;;3.85;3.55;;;20.90;99.90;;;21.72;64.15;97278.56;10352512;28;20250;-67
2023/08/05 17:36:44;;;;;;;3.83;3.60;;;20.80;99.90;;;21.63;65.44;97274.19;10354418;28;20230;-68
2023/08/05 17:41:47;;;;;;;4.70;4.30;;;20.70;99.90;;;21.58;67.79;97274.19;10363349;28;20968;-67
2023/08/05 17:46:51;;;;;;;5.38;3.83;;;20.70;99.90;;;21.47;67.83;97267.22;10350579;28;20575;-67
2023/08/05 17:51:54;;;;;;;4.57;4.25;;;20.60;99.90;;;21.49;69.84;97275.88;10346344;28;20226;-67
2023/08/05 17:56:58;;;;;;;4.18;3.88;;;20.50;99.90;;;21.48;69.43;97269.81;10362576;28;20241;-67
2023/08/05 18:02:02;;;;;;;4.43;4.13;;;20.40;99.90;;;21.35;69.84;97265.38;10356157;28;20229;-66
2023/08/05 18:07:06;;;;;;;4.63;4.22;;;20.30;99.90;;;21.25;71.15;97266.19;10345094;28;20730;-67
2023/08/05 18:12:09;;;;;;;5.55;3.97;;;20.20;99.90;;;21.18;73.14;97269.63;10354693;28;20610;-67
2023/08/05 18:17:14;;;;;;;5.10;4.60;;;20.20;99.90;;;21.03;73.99;97273.88;10360818;28;20234;-68
2023/08/05 18:22:17;;;;;;;5.10;4.60;;;20.00;99.90;;;20.90;76.27;97272.06;10352052;28;20529;-67
2023/08/05 18:27:20;;;;;;;4.50;4.10;;;19.90;99.90;;;20.76;76.87;97265.88;10358959;28;20226;-67
2023/08/05 18:32:25;;;;;;;5.05;4.65;;;19.80;99.90;;;20.69;77.35;97267.59;10353638;28;20252;-68
2023/08/05 18:37:28;;;;;;;4.78;4.30;;;19.60;99.90;;;20.55;78.66;97261.41;10337978;28;20915;-67
2023/08/05 18:42:31;;;;;;;4.25;3.95;;;19.50;99.90;;;20.27;79.24;97262.88;10350579;28;20229;-67
2023/08/05 18:47:36;;;;;;;4.78;4.22;;;19.30;99.90;;;20.13;79.13;97258.41;10353128;28;20596;-68
2023/08/05 18:52:39;;;;;;;4.30;4.00;;;19.20;99.90;;;20.06;79.76;97261.81;10360793;28;20254;-67
2023/08/05 18:57:42;;;;;;;4.68;4.32;;;19.20;99.90;;;19.98;79.62;97253.94;10356409;28;20693;-67
2023/08/05 19:02:49;;;;;;;4.20;3.80;;;19.10;99.90;;;19.82;79.75;97254.63;10357115;28;20709;-67
2023/08/05 19:07:52;;;;;;;5.32;4.80;;;18.90;99.90;;;19.73;80.66;97257.13;10354242;28;20237;-68
2023/08/05 19:12:55;;;;;;;4.75;4.35;;;18.80;99.90;;;19.66;81.81;97266.56;10352312;28;20225;-66
2023/08/05 19:18:00;;;;;;;5.05;4.47;;;18.70;99.90;;;19.60;83.46;97294.94;10354651;28;20230;-67
2023/08/05 19:23:04;;;;;;;4.38;3.78;;;18.70;99.90;;;19.76;75.29;97294.31;10342772;28;20643;-67
2023/08/05 19:28:07;;;;;;;4.57;3.75;;;18.90;99.90;;;19.65;76.12;97295.00;10345288;28;20796;-67
2023/08/05 19:33:12;;;;;;;3.60;3.30;;;18.70;99.90;;;19.70;74.70;97303.75;10353260;28;20228;-68
2023/08/05 19:38:15;;;;;;;3.67;3.42;;;18.70;99.90;;;19.47;76.03;97298.25;10353634;28;20226;-68
2023/08/05 19:43:18;;;;;;;3.63;3.33;;;18.60;99.90;;;19.47;78.92;97301.72;10360285;28;20264;-68
2023/08/05 19:48:23;;;;;;;3.78;3.47;;;18.50;99.90;;;19.29;79.64;97317.03;10346458;28;20226;-67
2023/08/05 19:53:26;;;;;;;4.15;3.75;;;18.40;99.90;;;19.13;81.17;97315.94;10350490;28;20237;-68
2023/08/05 19:58:29;;;;;;;3.15;2.95;;;18.30;99.90;;;19.07;80.60;97318.44;10352329;28;20233;-66
2023/08/05 20:03:34;;;;;;;3.63;3.33;;;18.20;99.90;;;19.04;84.80;97320.97;10361238;28;20234;-67
2023/08/05 20:08:37;;;;;;;4.25;3.80;;;18.10;99.90;;;18.73;88.65;97340.31;10352329;28;20222;-67
2023/08/05 20:13:40;;;;;;;3.83;3.58;;;17.90;99.90;;;18.41;91.99;97344.09;10351940;28;20219;-68
2023/08/05 20:18:45;;;;;;;4.47;4.07;;;17.60;99.90;;;18.00;96.74;97341.59;10346368;28;20244;-68
2023/08/05 20:23:48;;;;;;;5.13;4.72;;;17.40;99.90;;;17.80;100.00;97355.84;10349210;28;20230;-67
2023/08/05 20:28:53;;;;;;;4.90;4.50;;;17.20;99.90;;;17.74;100.00;97366.00;10354001;28;20725;-67
2023/08/05 20:33:57;;;;;;;5.18;4.68;;;16.90;99.90;;;17.24;100.00;97320.16;10353011;28;21216;-66
2023/08/05 20:39:00;;;;;;;5.75;5.25;;;16.60;99.90;;;16.75;100.00;97305.25;10350766;28;20709;-66
2023/08/05 20:44:04;;;;;;;6.68;5.90;;;16.30;99.90;;;16.43;100.00;97289.84;10357374;28;20303;-65
2023/08/05 20:49:09;;;;;;;6.13;5.63;;;16.00;99.90;;;16.28;100.00;97294.59;10351036;28;20223;-67
2023/08/05 20:54:12;;;;;;;6.50;5.88;;;15.90;99.90;;;16.35;100.00;97297.38;10353477;28;20599;-66
2023/08/05 20:59:15;;;;;;;6.40;5.90;;;15.90;99.90;;;16.27;100.00;97303.19;10353510;28;20240;-67